sensor_id;sensor_type;location;lat;lon;timestamp;P1;durP1;ratioP1;P2;durP2;ratioP2
13406;SDS011;6774;48.208;10.766;2023-02-15T00:00:03;5.07;;;4.67;;
13406;SDS011;6774;48.208;10.766;2023-02-15T00:02:34;5.63;;;4.33;;
13406;SDS011;6774;48.208;10.766;2023-02-15T00:05:04;8.10;;;5.37;;
13406;SDS011;6774;48.208;10.766;2023-02-15T00:07:32;5.00;;;4.60;;
13406;SDS011;6774;48.208;10.766;2023-02-15T00:09:59;4.70;;;4.30;;
13406;SDS011;6774;48.208;10.766;2023-02-15T00:12:27;5.70;;;5.20;;
13406;SDS011;6774;48.208;10.766;2023-02-15T00:14:55;6.13;;;5.60;;
13406;SDS011;6774;48.208;10.766;2023-02-15T00:17:23;4.50;;;4.20;;
13406;SDS011;6774;48.208;10.766;2023-02-15T00:19:51;6.90;;;6.40;;
13406;SDS011;6774;48.208;10.766;2023-02-15T00:22:21;6.00;;;5.60;;
13406;SDS011;6774;48.208;10.766;2023-02-15T00:24:48;5.10;;;4.73;;
13406;SDS011;6774;48.208;10.766;2023-02-15T00:27:16;5.30;;;4.90;;
13406;SDS011;6774;48.208;10.766;2023-02-15T00:29:44;4.93;;;4.53;;
13406;SDS011;6774;48.208;10.766;2023-02-15T00:32:14;6.00;;;5.60;;
13406;SDS011;6774;48.208;10.766;2023-02-15T00:34:42;4.67;;;4.27;;
13406;SDS011;6774;48.208;10.766;2023-02-15T00:37:10;5.93;;;5.47;;
13406;SDS011;6774;48.208;10.766;2023-02-15T00:39:39;4.93;;;4.47;;
13406;SDS011;6774;48.208;10.766;2023-02-15T00:42:07;4.67;;;4.37;;
13406;SDS011;6774;48.208;10.766;2023-02-15T00:44:36;5.50;;;5.00;;
13406;SDS011;6774;48.208;10.766;2023-02-15T00:47:03;4.07;;;3.77;;
13406;SDS011;6774;48.208;10.766;2023-02-15T00:49:32;5.13;;;4.73;;
13406;SDS011;6774;48.208;10.766;2023-02-15T00:52:00;5.93;;;5.43;;
13406;SDS011;6774;48.208;10.766;2023-02-15T00:54:27;5.37;;;4.97;;
13406;SDS011;6774;48.208;10.766;2023-02-15T00:56:56;5.07;;;4.67;;
13406;SDS011;6774;48.208;10.766;2023-02-15T00:59:24;6.87;;;4.97;;
13406;SDS011;6774;48.208;10.766;2023-02-15T01:01:52;4.97;;;4.57;;
13406;SDS011;6774;48.208;10.766;2023-02-15T01:04:20;8.00;;;6.30;;
13406;SDS011;6774;48.208;10.766;2023-02-15T01:06:48;5.30;;;4.90;;
13406;SDS011;6774;48.208;10.766;2023-02-15T01:09:16;7.27;;;5.43;;
13406;SDS011;6774;48.208;10.766;2023-02-15T01:11:44;6.70;;;5.53;;
13406;SDS011;6774;48.208;10.766;2023-02-15T01:14:14;5.80;;;5.40;;
13406;SDS011;6774;48.208;10.766;2023-02-15T01:17:04;4.97;;;4.53;;
13406;SDS011;6774;48.208;10.766;2023-02-15T01:19:34;5.83;;;5.37;;
13406;SDS011;6774;48.208;10.766;2023-02-15T01:22:02;5.90;;;5.50;;
13406;SDS011;6774;48.208;10.766;2023-02-15T01:24:34;6.40;;;5.87;;
13406;SDS011;6774;48.208;10.766;2023-02-15T01:27:02;4.73;;;4.43;;
13406;SDS011;6774;48.208;10.766;2023-02-15T01:29:31;5.20;;;4.80;;
13406;SDS011;6774;48.208;10.766;2023-02-15T01:31:59;5.60;;;5.10;;
13406;SDS011;6774;48.208;10.766;2023-02-15T01:34:28;6.43;;;6.03;;
13406;SDS011;6774;48.208;10.766;2023-02-15T01:36:56;6.13;;;5.73;;
13406;SDS011;6774;48.208;10.766;2023-02-15T01:39:25;5.37;;;4.90;;
13406;SDS011;6774;48.208;10.766;2023-02-15T01:41:52;5.37;;;4.97;;
13406;SDS011;6774;48.208;10.766;2023-02-15T01:44:45;5.13;;;4.83;;
13406;SDS011;6774;48.208;10.766;2023-02-15T01:47:16;5.93;;;5.50;;
13406;SDS011;6774;48.208;10.766;2023-02-15T01:49:48;6.67;;;6.13;;
13406;SDS011;6774;48.208;10.766;2023-02-15T01:52:26;5.53;;;5.13;;
13406;SDS011;6774;48.208;10.766;2023-02-15T01:54:55;5.30;;;4.83;;
13406;SDS011;6774;48.208;10.766;2023-02-15T01:57:23;4.27;;;3.70;;
13406;SDS011;6774;48.208;10.766;2023-02-15T01:59:56;5.67;;;5.20;;
13406;SDS011;6774;48.208;10.766;2023-02-15T02:02:37;6.83;;;5.80;;
13406;SDS011;6774;48.208;10.766;2023-02-15T02:05:06;5.30;;;4.97;;
13406;SDS011;6774;48.208;10.766;2023-02-15T02:07:36;6.10;;;5.60;;
13406;SDS011;6774;48.208;10.766;2023-02-15T02:10:08;5.63;;;5.13;;
13406;SDS011;6774;48.208;10.766;2023-02-15T02:12:39;4.80;;;4.50;;
13406;SDS011;6774;48.208;10.766;2023-02-15T02:15:11;6.57;;;5.97;;
13406;SDS011;6774;48.208;10.766;2023-02-15T02:17:42;6.10;;;5.60;;
13406;SDS011;6774;48.208;10.766;2023-02-15T02:20:30;3.40;;;3.10;;
13406;SDS011;6774;48.208;10.766;2023-02-15T02:23:29;5.90;;;5.40;;
13406;SDS011;6774;48.208;10.766;2023-02-15T02:26:13;5.90;;;5.50;;
13406;SDS011;6774;48.208;10.766;2023-02-15T02:29:11;6.10;;;5.53;;
13406;SDS011;6774;48.208;10.766;2023-02-15T02:32:09;5.87;;;5.37;;
13406;SDS011;6774;48.208;10.766;2023-02-15T02:34:57;5.87;;;5.47;;
13406;SDS011;6774;48.208;10.766;2023-02-15T02:37:34;6.37;;;5.83;;
13406;SDS011;6774;48.208;10.766;2023-02-15T02:40:13;6.27;;;5.67;;
13406;SDS011;6774;48.208;10.766;2023-02-15T02:42:48;6.40;;;5.80;;
13406;SDS011;6774;48.208;10.766;2023-02-15T02:45:22;5.80;;;5.40;;
13406;SDS011;6774;48.208;10.766;2023-02-15T02:47:54;6.57;;;5.97;;
13406;SDS011;6774;48.208;10.766;2023-02-15T02:50:29;5.47;;;5.07;;
13406;SDS011;6774;48.208;10.766;2023-02-15T02:52:58;6.00;;;5.50;;
13406;SDS011;6774;48.208;10.766;2023-02-15T02:55:27;6.73;;;6.23;;
13406;SDS011;6774;48.208;10.766;2023-02-15T02:58:02;6.63;;;6.13;;
13406;SDS011;6774;48.208;10.766;2023-02-15T03:00:34;6.13;;;5.60;;
13406;SDS011;6774;48.208;10.766;2023-02-15T03:03:08;14.10;;;6.50;;
13406;SDS011;6774;48.208;10.766;2023-02-15T03:05:43;5.90;;;5.30;;
13406;SDS011;6774;48.208;10.766;2023-02-15T03:08:14;5.70;;;5.30;;
13406;SDS011;6774;48.208;10.766;2023-02-15T03:10:51;5.97;;;5.47;;
13406;SDS011;6774;48.208;10.766;2023-02-15T03:13:22;5.73;;;5.33;;
13406;SDS011;6774;48.208;10.766;2023-02-15T03:15:50;6.00;;;5.60;;
13406;SDS011;6774;48.208;10.766;2023-02-15T03:18:39;5.90;;;5.50;;
13406;SDS011;6774;48.208;10.766;2023-02-15T03:21:11;4.63;;;4.30;;
13406;SDS011;6774;48.208;10.766;2023-02-15T03:23:50;5.30;;;4.90;;
13406;SDS011;6774;48.208;10.766;2023-02-15T03:26:21;4.70;;;4.30;;
13406;SDS011;6774;48.208;10.766;2023-02-15T03:28:52;5.53;;;5.03;;
13406;SDS011;6774;48.208;10.766;2023-02-15T03:31:26;6.73;;;6.13;;
13406;SDS011;6774;48.208;10.766;2023-02-15T03:34:00;5.80;;;5.40;;
13406;SDS011;6774;48.208;10.766;2023-02-15T03:36:33;6.00;;;5.50;;
13406;SDS011;6774;48.208;10.766;2023-02-15T03:39:08;7.40;;;6.80;;
13406;SDS011;6774;48.208;10.766;2023-02-15T03:41:42;7.17;;;6.57;;
13406;SDS011;6774;48.208;10.766;2023-02-15T03:44:17;6.37;;;5.87;;
13406;SDS011;6774;48.208;10.766;2023-02-15T03:46:51;6.20;;;5.60;;
13406;SDS011;6774;48.208;10.766;2023-02-15T03:49:24;7.00;;;6.60;;
13406;SDS011;6774;48.208;10.766;2023-02-15T03:51:59;5.97;;;5.47;;
13406;SDS011;6774;48.208;10.766;2023-02-15T03:54:30;5.97;;;5.47;;
13406;SDS011;6774;48.208;10.766;2023-02-15T03:57:17;7.67;;;6.97;;
13406;SDS011;6774;48.208;10.766;2023-02-15T04:00:06;6.60;;;5.13;;
13406;SDS011;6774;48.208;10.766;2023-02-15T04:03:04;7.90;;;6.03;;
13406;SDS011;6774;48.208;10.766;2023-02-15T04:05:39;6.87;;;6.37;;
13406;SDS011;6774;48.208;10.766;2023-02-15T04:08:08;6.03;;;5.53;;
13406;SDS011;6774;48.208;10.766;2023-02-15T04:10:37;5.50;;;5.00;;
13406;SDS011;6774;48.208;10.766;2023-02-15T04:13:19;6.40;;;5.83;;
13406;SDS011;6774;48.208;10.766;2023-02-15T04:15:48;7.17;;;6.53;;
13406;SDS011;6774;48.208;10.766;2023-02-15T04:18:33;6.30;;;5.80;;
13406;SDS011;6774;48.208;10.766;2023-02-15T04:21:21;7.07;;;6.57;;
13406;SDS011;6774;48.208;10.766;2023-02-15T04:24:09;7.50;;;6.80;;
13406;SDS011;6774;48.208;10.766;2023-02-15T04:26:55;6.30;;;5.70;;
13406;SDS011;6774;48.208;10.766;2023-02-15T04:29:25;5.63;;;5.13;;
13406;SDS011;6774;48.208;10.766;2023-02-15T04:31:54;6.00;;;5.60;;
13406;SDS011;6774;48.208;10.766;2023-02-15T04:34:24;6.80;;;5.43;;
13406;SDS011;6774;48.208;10.766;2023-02-15T04:36:52;5.87;;;5.40;;
13406;SDS011;6774;48.208;10.766;2023-02-15T04:39:22;5.57;;;5.03;;
13406;SDS011;6774;48.208;10.766;2023-02-15T04:41:50;6.00;;;5.43;;
13406;SDS011;6774;48.208;10.766;2023-02-15T04:44:18;6.67;;;6.07;;
13406;SDS011;6774;48.208;10.766;2023-02-15T04:46:45;6.13;;;5.53;;
13406;SDS011;6774;48.208;10.766;2023-02-15T04:49:13;5.17;;;4.77;;
13406;SDS011;6774;48.208;10.766;2023-02-15T04:51:41;6.33;;;5.83;;
13406;SDS011;6774;48.208;10.766;2023-02-15T04:54:09;5.80;;;5.40;;
13406;SDS011;6774;48.208;10.766;2023-02-15T04:56:39;7.07;;;6.40;;
13406;SDS011;6774;48.208;10.766;2023-02-15T04:59:08;6.03;;;5.57;;
13406;SDS011;6774;48.208;10.766;2023-02-15T05:01:37;6.40;;;5.90;;
13406;SDS011;6774;48.208;10.766;2023-02-15T05:04:05;9.50;;;6.73;;
13406;SDS011;6774;48.208;10.766;2023-02-15T05:06:33;18.57;;;7.10;;
13406;SDS011;6774;48.208;10.766;2023-02-15T05:09:01;7.03;;;6.20;;
13406;SDS011;6774;48.208;10.766;2023-02-15T05:11:30;5.90;;;5.40;;
13406;SDS011;6774;48.208;10.766;2023-02-15T05:13:59;5.00;;;4.60;;
13406;SDS011;6774;48.208;10.766;2023-02-15T05:16:30;5.23;;;4.73;;
13406;SDS011;6774;48.208;10.766;2023-02-15T05:18:58;12.73;;;7.60;;
13406;SDS011;6774;48.208;10.766;2023-02-15T05:21:26;7.60;;;6.90;;
13406;SDS011;6774;48.208;10.766;2023-02-15T05:23:54;6.77;;;6.17;;
13406;SDS011;6774;48.208;10.766;2023-02-15T05:26:22;5.87;;;5.37;;
13406;SDS011;6774;48.208;10.766;2023-02-15T05:29:11;13.73;;;6.87;;
13406;SDS011;6774;48.208;10.766;2023-02-15T05:31:39;5.90;;;5.40;;
13406;SDS011;6774;48.208;10.766;2023-02-15T05:34:07;6.67;;;5.57;;
13406;SDS011;6774;48.208;10.766;2023-02-15T05:36:35;5.37;;;4.97;;
13406;SDS011;6774;48.208;10.766;2023-02-15T05:39:03;7.13;;;5.73;;
13406;SDS011;6774;48.208;10.766;2023-02-15T05:41:32;4.93;;;4.40;;
13406;SDS011;6774;48.208;10.766;2023-02-15T05:43:59;5.50;;;4.87;;
13406;SDS011;6774;48.208;10.766;2023-02-15T05:46:31;5.10;;;4.70;;
13406;SDS011;6774;48.208;10.766;2023-02-15T05:48:59;7.70;;;7.10;;
13406;SDS011;6774;48.208;10.766;2023-02-15T05:51:27;6.20;;;5.60;;
13406;SDS011;6774;48.208;10.766;2023-02-15T05:53:55;5.40;;;4.90;;
13406;SDS011;6774;48.208;10.766;2023-02-15T05:56:22;5.57;;;5.17;;
13406;SDS011;6774;48.208;10.766;2023-02-15T05:58:52;5.90;;;5.40;;
13406;SDS011;6774;48.208;10.766;2023-02-15T06:01:20;5.00;;;4.50;;
13406;SDS011;6774;48.208;10.766;2023-02-15T06:03:50;5.33;;;4.93;;
13406;SDS011;6774;48.208;10.766;2023-02-15T06:06:18;6.67;;;6.17;;
13406;SDS011;6774;48.208;10.766;2023-02-15T06:08:46;5.40;;;4.90;;
13406;SDS011;6774;48.208;10.766;2023-02-15T06:11:14;5.90;;;5.47;;
13406;SDS011;6774;48.208;10.766;2023-02-15T06:13:42;6.20;;;5.67;;
13406;SDS011;6774;48.208;10.766;2023-02-15T06:16:11;6.20;;;5.70;;
13406;SDS011;6774;48.208;10.766;2023-02-15T06:18:39;6.30;;;5.83;;
13406;SDS011;6774;48.208;10.766;2023-02-15T06:21:08;6.60;;;6.10;;
13406;SDS011;6774;48.208;10.766;2023-02-15T06:23:36;7.07;;;6.47;;
13406;SDS011;6774;48.208;10.766;2023-02-15T06:26:04;5.97;;;5.53;;
13406;SDS011;6774;48.208;10.766;2023-02-15T06:28:31;6.07;;;5.57;;
13406;SDS011;6774;48.208;10.766;2023-02-15T06:30:59;6.67;;;6.17;;
13406;SDS011;6774;48.208;10.766;2023-02-15T06:33:27;8.70;;;6.50;;
13406;SDS011;6774;48.208;10.766;2023-02-15T06:35:56;5.83;;;5.37;;
13406;SDS011;6774;48.208;10.766;2023-02-15T06:38:25;7.50;;;6.73;;
13406;SDS011;6774;48.208;10.766;2023-02-15T06:40:53;6.40;;;5.90;;
13406;SDS011;6774;48.208;10.766;2023-02-15T06:43:21;7.47;;;6.77;;
13406;SDS011;6774;48.208;10.766;2023-02-15T06:45:49;7.97;;;7.27;;
13406;SDS011;6774;48.208;10.766;2023-02-15T06:48:17;8.60;;;7.83;;
13406;SDS011;6774;48.208;10.766;2023-02-15T06:50:45;6.90;;;6.33;;
13406;SDS011;6774;48.208;10.766;2023-02-15T06:53:13;6.27;;;5.77;;
13406;SDS011;6774;48.208;10.766;2023-02-15T06:55:42;5.83;;;5.43;;
13406;SDS011;6774;48.208;10.766;2023-02-15T06:58:10;6.30;;;5.80;;
13406;SDS011;6774;48.208;10.766;2023-02-15T07:00:38;7.47;;;6.80;;
13406;SDS011;6774;48.208;10.766;2023-02-15T07:03:06;6.43;;;5.87;;
13406;SDS011;6774;48.208;10.766;2023-02-15T07:05:34;7.93;;;7.30;;
13406;SDS011;6774;48.208;10.766;2023-02-15T07:08:02;5.37;;;4.90;;
13406;SDS011;6774;48.208;10.766;2023-02-15T07:10:30;5.57;;;5.07;;
13406;SDS011;6774;48.208;10.766;2023-02-15T07:13:00;7.13;;;6.63;;
13406;SDS011;6774;48.208;10.766;2023-02-15T07:15:26;6.50;;;6.00;;
13406;SDS011;6774;48.208;10.766;2023-02-15T07:17:54;6.40;;;5.93;;
13406;SDS011;6774;48.208;10.766;2023-02-15T07:20:22;5.70;;;5.30;;
13406;SDS011;6774;48.208;10.766;2023-02-15T07:22:50;6.00;;;5.50;;
13406;SDS011;6774;48.208;10.766;2023-02-15T07:25:19;5.53;;;5.20;;
13406;SDS011;6774;48.208;10.766;2023-02-15T07:27:47;5.87;;;5.47;;
13406;SDS011;6774;48.208;10.766;2023-02-15T07:30:17;6.53;;;6.00;;
13406;SDS011;6774;48.208;10.766;2023-02-15T07:32:44;12.53;;;7.07;;
13406;SDS011;6774;48.208;10.766;2023-02-15T07:35:31;17.20;;;7.43;;
13406;SDS011;6774;48.208;10.766;2023-02-15T07:37:59;10.60;;;5.53;;
13406;SDS011;6774;48.208;10.766;2023-02-15T07:40:27;5.23;;;4.93;;
13406;SDS011;6774;48.208;10.766;2023-02-15T07:42:57;5.43;;;5.00;;
13406;SDS011;6774;48.208;10.766;2023-02-15T07:45:27;4.47;;;4.13;;
13406;SDS011;6774;48.208;10.766;2023-02-15T07:47:54;4.73;;;4.43;;
13406;SDS011;6774;48.208;10.766;2023-02-15T07:50:23;13.90;;;7.07;;
13406;SDS011;6774;48.208;10.766;2023-02-15T07:52:51;4.93;;;4.53;;
13406;SDS011;6774;48.208;10.766;2023-02-15T07:55:18;6.40;;;5.97;;
13406;SDS011;6774;48.208;10.766;2023-02-15T07:57:48;8.50;;;7.77;;
13406;SDS011;6774;48.208;10.766;2023-02-15T08:00:18;9.03;;;8.23;;
13406;SDS011;6774;48.208;10.766;2023-02-15T08:02:51;9.30;;;6.63;;
13406;SDS011;6774;48.208;10.766;2023-02-15T08:05:34;7.63;;;7.10;;
13406;SDS011;6774;48.208;10.766;2023-02-15T08:08:03;8.17;;;6.37;;
13406;SDS011;6774;48.208;10.766;2023-02-15T08:10:31;7.13;;;6.53;;
13406;SDS011;6774;48.208;10.766;2023-02-15T08:13:16;6.03;;;5.57;;
13406;SDS011;6774;48.208;10.766;2023-02-15T08:15:47;10.07;;;9.27;;
13406;SDS011;6774;48.208;10.766;2023-02-15T08:18:17;7.97;;;7.40;;
13406;SDS011;6774;48.208;10.766;2023-02-15T08:20:48;8.40;;;7.70;;
13406;SDS011;6774;48.208;10.766;2023-02-15T08:23:16;7.10;;;5.47;;
13406;SDS011;6774;48.208;10.766;2023-02-15T08:25:44;5.93;;;5.43;;
13406;SDS011;6774;48.208;10.766;2023-02-15T08:28:12;5.87;;;5.37;;
13406;SDS011;6774;48.208;10.766;2023-02-15T08:30:40;5.33;;;4.77;;
13406;SDS011;6774;48.208;10.766;2023-02-15T08:33:08;6.17;;;5.77;;
13406;SDS011;6774;48.208;10.766;2023-02-15T08:35:38;6.53;;;6.03;;
13406;SDS011;6774;48.208;10.766;2023-02-15T08:38:06;5.60;;;5.30;;
13406;SDS011;6774;48.208;10.766;2023-02-15T08:40:34;4.90;;;4.60;;
13406;SDS011;6774;48.208;10.766;2023-02-15T08:43:04;7.43;;;6.73;;
13406;SDS011;6774;48.208;10.766;2023-02-15T08:45:33;8.27;;;7.43;;
13406;SDS011;6774;48.208;10.766;2023-02-15T08:48:01;6.67;;;6.17;;
13406;SDS011;6774;48.208;10.766;2023-02-15T08:50:29;5.37;;;4.97;;
13406;SDS011;6774;48.208;10.766;2023-02-15T08:52:58;6.90;;;6.30;;
13406;SDS011;6774;48.208;10.766;2023-02-15T08:55:26;6.10;;;5.60;;
13406;SDS011;6774;48.208;10.766;2023-02-15T08:57:54;6.70;;;6.20;;
13406;SDS011;6774;48.208;10.766;2023-02-15T09:00:22;6.13;;;5.63;;
13406;SDS011;6774;48.208;10.766;2023-02-15T09:02:51;6.23;;;5.73;;
13406;SDS011;6774;48.208;10.766;2023-02-15T09:05:19;6.17;;;5.67;;
13406;SDS011;6774;48.208;10.766;2023-02-15T09:07:47;9.00;;;8.27;;
13406;SDS011;6774;48.208;10.766;2023-02-15T09:10:17;7.93;;;6.37;;
13406;SDS011;6774;48.208;10.766;2023-02-15T09:12:45;9.87;;;8.87;;
13406;SDS011;6774;48.208;10.766;2023-02-15T09:15:13;8.13;;;7.53;;
13406;SDS011;6774;48.208;10.766;2023-02-15T09:17:41;9.27;;;8.43;;
13406;SDS011;6774;48.208;10.766;2023-02-15T09:20:09;8.83;;;8.00;;
13406;SDS011;6774;48.208;10.766;2023-02-15T09:22:37;10.60;;;9.03;;
13406;SDS011;6774;48.208;10.766;2023-02-15T09:25:05;14.23;;;10.10;;
13406;SDS011;6774;48.208;10.766;2023-02-15T09:27:34;9.33;;;8.67;;
13406;SDS011;6774;48.208;10.766;2023-02-15T09:30:02;8.90;;;8.27;;
13406;SDS011;6774;48.208;10.766;2023-02-15T09:32:30;7.43;;;6.97;;
13406;SDS011;6774;48.208;10.766;2023-02-15T09:34:59;7.70;;;7.00;;
13406;SDS011;6774;48.208;10.766;2023-02-15T09:37:27;7.57;;;6.73;;
13406;SDS011;6774;48.208;10.766;2023-02-15T09:39:54;6.30;;;5.80;;
13406;SDS011;6774;48.208;10.766;2023-02-15T09:42:27;8.67;;;7.97;;
13406;SDS011;6774;48.208;10.766;2023-02-15T09:45:13;8.57;;;7.97;;
13406;SDS011;6774;48.208;10.766;2023-02-15T09:47:56;8.40;;;7.70;;
13406;SDS011;6774;48.208;10.766;2023-02-15T09:50:36;5.67;;;5.23;;
13406;SDS011;6774;48.208;10.766;2023-02-15T09:53:18;6.87;;;6.37;;
13406;SDS011;6774;48.208;10.766;2023-02-15T09:56:05;7.17;;;6.67;;
13406;SDS011;6774;48.208;10.766;2023-02-15T09:58:42;7.00;;;6.50;;
13406;SDS011;6774;48.208;10.766;2023-02-15T10:01:17;6.93;;;6.37;;
13406;SDS011;6774;48.208;10.766;2023-02-15T10:04:05;12.53;;;6.80;;
13406;SDS011;6774;48.208;10.766;2023-02-15T10:06:47;8.00;;;7.40;;
13406;SDS011;6774;48.208;10.766;2023-02-15T10:09:33;8.10;;;7.50;;
13406;SDS011;6774;48.208;10.766;2023-02-15T10:12:13;8.03;;;7.57;;
13406;SDS011;6774;48.208;10.766;2023-02-15T10:14:57;6.03;;;5.63;;
13406;SDS011;6774;48.208;10.766;2023-02-15T10:17:41;6.43;;;5.93;;
13406;SDS011;6774;48.208;10.766;2023-02-15T10:20:26;7.10;;;6.60;;
13406;SDS011;6774;48.208;10.766;2023-02-15T10:23:05;6.87;;;6.30;;
13406;SDS011;6774;48.208;10.766;2023-02-15T10:25:43;7.20;;;6.70;;
13406;SDS011;6774;48.208;10.766;2023-02-15T10:28:16;6.43;;;5.90;;
13406;SDS011;6774;48.208;10.766;2023-02-15T10:30:48;6.87;;;6.47;;
13406;SDS011;6774;48.208;10.766;2023-02-15T10:33:22;7.23;;;6.63;;
13406;SDS011;6774;48.208;10.766;2023-02-15T10:36:07;7.90;;;6.90;;
13406;SDS011;6774;48.208;10.766;2023-02-15T10:38:47;7.63;;;7.13;;
13406;SDS011;6774;48.208;10.766;2023-02-15T10:41:26;6.70;;;6.30;;
13406;SDS011;6774;48.208;10.766;2023-02-15T10:44:06;7.97;;;7.43;;
13406;SDS011;6774;48.208;10.766;2023-02-15T10:46:51;7.13;;;6.53;;
13406;SDS011;6774;48.208;10.766;2023-02-15T10:49:36;6.27;;;5.80;;
13406;SDS011;6774;48.208;10.766;2023-02-15T10:52:19;6.43;;;5.93;;
13406;SDS011;6774;48.208;10.766;2023-02-15T10:55:00;6.07;;;5.57;;
13406;SDS011;6774;48.208;10.766;2023-02-15T10:57:38;5.67;;;5.30;;
13406;SDS011;6774;48.208;10.766;2023-02-15T11:00:19;6.30;;;5.90;;
13406;SDS011;6774;48.208;10.766;2023-02-15T11:02:58;6.60;;;6.10;;
13406;SDS011;6774;48.208;10.766;2023-02-15T11:05:44;5.67;;;5.37;;
13406;SDS011;6774;48.208;10.766;2023-02-15T11:08:21;5.43;;;5.00;;
13406;SDS011;6774;48.208;10.766;2023-02-15T11:10:52;7.40;;;6.90;;
13406;SDS011;6774;48.208;10.766;2023-02-15T11:13:25;5.53;;;5.23;;
13406;SDS011;6774;48.208;10.766;2023-02-15T11:15:56;6.20;;;5.80;;
13406;SDS011;6774;48.208;10.766;2023-02-15T11:18:31;7.40;;;6.40;;
13406;SDS011;6774;48.208;10.766;2023-02-15T11:21:04;6.87;;;6.27;;
13406;SDS011;6774;48.208;10.766;2023-02-15T11:23:39;5.73;;;5.43;;
13406;SDS011;6774;48.208;10.766;2023-02-15T11:26:13;6.93;;;6.53;;
13406;SDS011;6774;48.208;10.766;2023-02-15T11:28:49;8.57;;;7.97;;
13406;SDS011;6774;48.208;10.766;2023-02-15T11:31:22;6.40;;;5.70;;
13406;SDS011;6774;48.208;10.766;2023-02-15T11:33:53;6.63;;;6.23;;
13406;SDS011;6774;48.208;10.766;2023-02-15T11:36:27;8.20;;;7.40;;
13406;SDS011;6774;48.208;10.766;2023-02-15T11:39:01;7.33;;;6.63;;
13406;SDS011;6774;48.208;10.766;2023-02-15T11:41:33;8.83;;;8.07;;
13406;SDS011;6774;48.208;10.766;2023-02-15T11:44:06;8.20;;;7.70;;
13406;SDS011;6774;48.208;10.766;2023-02-15T11:46:37;7.70;;;7.00;;
13406;SDS011;6774;48.208;10.766;2023-02-15T11:49:09;7.60;;;6.73;;
13406;SDS011;6774;48.208;10.766;2023-02-15T11:51:50;7.43;;;6.90;;
13406;SDS011;6774;48.208;10.766;2023-02-15T11:54:19;7.50;;;7.00;;
13406;SDS011;6774;48.208;10.766;2023-02-15T11:56:53;6.97;;;6.50;;
13406;SDS011;6774;48.208;10.766;2023-02-15T11:59:24;6.90;;;6.47;;
13406;SDS011;6774;48.208;10.766;2023-02-15T12:01:56;6.73;;;6.33;;
13406;SDS011;6774;48.208;10.766;2023-02-15T12:04:28;7.53;;;6.97;;
13406;SDS011;6774;48.208;10.766;2023-02-15T12:07:01;6.97;;;6.47;;
13406;SDS011;6774;48.208;10.766;2023-02-15T12:09:40;7.17;;;6.77;;
13406;SDS011;6774;48.208;10.766;2023-02-15T12:12:23;7.23;;;6.60;;
13406;SDS011;6774;48.208;10.766;2023-02-15T12:15:10;7.03;;;6.63;;
13406;SDS011;6774;48.208;10.766;2023-02-15T12:17:40;8.40;;;7.03;;
13406;SDS011;6774;48.208;10.766;2023-02-15T12:20:24;6.20;;;5.80;;
13406;SDS011;6774;48.208;10.766;2023-02-15T12:22:59;6.90;;;6.40;;
13406;SDS011;6774;48.208;10.766;2023-02-15T12:25:32;6.60;;;6.20;;
13406;SDS011;6774;48.208;10.766;2023-02-15T12:28:03;7.43;;;6.70;;
13406;SDS011;6774;48.208;10.766;2023-02-15T12:30:43;6.20;;;5.90;;
13406;SDS011;6774;48.208;10.766;2023-02-15T12:33:13;7.13;;;6.63;;
13406;SDS011;6774;48.208;10.766;2023-02-15T12:35:45;7.20;;;6.50;;
13406;SDS011;6774;48.208;10.766;2023-02-15T12:38:23;8.80;;;8.30;;
13406;SDS011;6774;48.208;10.766;2023-02-15T12:40:56;6.77;;;6.37;;
13406;SDS011;6774;48.208;10.766;2023-02-15T12:43:27;8.10;;;7.50;;
13406;SDS011;6774;48.208;10.766;2023-02-15T12:46:13;5.57;;;5.27;;
13406;SDS011;6774;48.208;10.766;2023-02-15T12:48:46;6.83;;;6.33;;
13406;SDS011;6774;48.208;10.766;2023-02-15T12:51:15;8.77;;;7.93;;
13406;SDS011;6774;48.208;10.766;2023-02-15T12:53:43;6.40;;;6.00;;
13406;SDS011;6774;48.208;10.766;2023-02-15T12:56:11;7.10;;;6.50;;
13406;SDS011;6774;48.208;10.766;2023-02-15T12:58:39;7.70;;;7.10;;
13406;SDS011;6774;48.208;10.766;2023-02-15T13:01:12;7.07;;;6.53;;
13406;SDS011;6774;48.208;10.766;2023-02-15T13:03:54;7.07;;;6.47;;
13406;SDS011;6774;48.208;10.766;2023-02-15T13:06:26;7.20;;;6.60;;
13406;SDS011;6774;48.208;10.766;2023-02-15T13:08:58;5.67;;;5.37;;
13406;SDS011;6774;48.208;10.766;2023-02-15T13:11:33;7.20;;;6.70;;
13406;SDS011;6774;48.208;10.766;2023-02-15T13:14:02;7.57;;;7.07;;
13406;SDS011;6774;48.208;10.766;2023-02-15T13:16:44;8.30;;;7.70;;
13406;SDS011;6774;48.208;10.766;2023-02-15T13:19:15;7.60;;;7.00;;
13406;SDS011;6774;48.208;10.766;2023-02-15T13:21:47;7.30;;;6.80;;
13406;SDS011;6774;48.208;10.766;2023-02-15T13:24:18;7.23;;;6.73;;
13406;SDS011;6774;48.208;10.766;2023-02-15T13:26:49;7.93;;;7.33;;
13406;SDS011;6774;48.208;10.766;2023-02-15T13:29:21;6.97;;;6.27;;
13406;SDS011;6774;48.208;10.766;2023-02-15T13:31:50;9.50;;;8.53;;
13406;SDS011;6774;48.208;10.766;2023-02-15T13:34:20;7.77;;;7.10;;
13406;SDS011;6774;48.208;10.766;2023-02-15T13:36:54;7.73;;;7.03;;
13406;SDS011;6774;48.208;10.766;2023-02-15T13:39:30;6.83;;;6.43;;
13406;SDS011;6774;48.208;10.766;2023-02-15T13:42:09;8.47;;;7.73;;
13406;SDS011;6774;48.208;10.766;2023-02-15T13:44:52;7.00;;;5.83;;
13406;SDS011;6774;48.208;10.766;2023-02-15T13:47:29;7.37;;;6.87;;
13406;SDS011;6774;48.208;10.766;2023-02-15T13:50:05;9.03;;;8.57;;
13406;SDS011;6774;48.208;10.766;2023-02-15T13:52:50;7.33;;;6.93;;
13406;SDS011;6774;48.208;10.766;2023-02-15T13:55:30;9.40;;;7.90;;
13406;SDS011;6774;48.208;10.766;2023-02-15T14:01:09;14.83;;;10.73;;
13406;SDS011;6774;48.208;10.766;2023-02-15T14:06:49;11.20;;;9.97;;
13406;SDS011;6774;48.208;10.766;2023-02-15T14:09:36;19.23;;;10.87;;
13406;SDS011;6774;48.208;10.766;2023-02-15T14:12:20;11.27;;;10.10;;
13406;SDS011;6774;48.208;10.766;2023-02-15T14:17:56;12.00;;;10.87;;
13406;SDS011;6774;48.208;10.766;2023-02-15T14:20:36;10.53;;;9.57;;
13406;SDS011;6774;48.208;10.766;2023-02-15T14:23:15;10.33;;;9.33;;
13406;SDS011;6774;48.208;10.766;2023-02-15T14:25:58;10.00;;;9.23;;
13406;SDS011;6774;48.208;10.766;2023-02-15T14:28:32;10.17;;;9.47;;
13406;SDS011;6774;48.208;10.766;2023-02-15T14:31:06;9.57;;;8.80;;
13406;SDS011;6774;48.208;10.766;2023-02-15T14:33:37;10.77;;;9.77;;
13406;SDS011;6774;48.208;10.766;2023-02-15T14:36:07;9.30;;;8.60;;
13406;SDS011;6774;48.208;10.766;2023-02-15T14:38:42;9.10;;;8.50;;
13406;SDS011;6774;48.208;10.766;2023-02-15T14:41:21;10.60;;;9.80;;
13406;SDS011;6774;48.208;10.766;2023-02-15T14:43:58;9.47;;;8.63;;
13406;SDS011;6774;48.208;10.766;2023-02-15T14:46:37;10.03;;;9.13;;
13406;SDS011;6774;48.208;10.766;2023-02-15T14:49:10;10.20;;;9.40;;
13406;SDS011;6774;48.208;10.766;2023-02-15T14:51:59;8.50;;;7.90;;
13406;SDS011;6774;48.208;10.766;2023-02-15T14:54:52;12.70;;;8.30;;
13406;SDS011;6774;48.208;10.766;2023-02-15T14:57:26;9.93;;;9.17;;
13406;SDS011;6774;48.208;10.766;2023-02-15T15:00:03;8.47;;;7.83;;
13406;SDS011;6774;48.208;10.766;2023-02-15T15:02:51;8.37;;;7.70;;
13406;SDS011;6774;48.208;10.766;2023-02-15T15:05:21;8.80;;;8.13;;
13406;SDS011;6774;48.208;10.766;2023-02-15T15:07:52;8.80;;;8.10;;
13406;SDS011;6774;48.208;10.766;2023-02-15T15:10:38;8.50;;;7.70;;
13406;SDS011;6774;48.208;10.766;2023-02-15T15:18:56;9.03;;;8.37;;
13406;SDS011;6774;48.208;10.766;2023-02-15T15:24:46;10.87;;;9.93;;
13406;SDS011;6774;48.208;10.766;2023-02-15T15:27:37;8.87;;;8.17;;
13406;SDS011;6774;48.208;10.766;2023-02-15T15:46:26;8.50;;;7.83;;
13406;SDS011;6774;48.208;10.766;2023-02-15T15:49:10;9.87;;;8.77;;
13406;SDS011;6774;48.208;10.766;2023-02-15T15:51:41;10.07;;;9.17;;
13406;SDS011;6774;48.208;10.766;2023-02-15T15:54:12;7.27;;;6.77;;